Time;durP1;ratioP1;P1;durP2;ratioP2;P2;SDS_P1;SDS_P2;PMS_P1;PMS_P2;Temp;Humidity;BMP_temperature;BMP_pressure;BME280_temperature;BME280_humidity;BME280_pressure;Samples;Min_cycle;Max_cycle;Signal;HPM_P1;HPM_P2
2023/05/23 00:01:09;;;;;;;12.05;10.80;;;11.10;99.90;;;;;;5014938;28;20046;-77
2023/05/23 00:03:37;;;;;;;13.45;10.98;;;11.10;99.90;;;;;;5017010;28;20049;-74
2023/05/23 00:06:07;;;;;;;12.40;11.10;;;11.10;99.90;;;;;;4996963;28;20052;-76
2023/05/23 00:08:34;;;;;;;15.18;11.32;;;11.00;99.90;;;;;;5012694;28;20491;-76
2023/05/23 00:11:03;;;;;;;12.23;10.93;;;11.00;99.90;;;;;;4996174;28;20514;-76
2023/05/23 00:13:33;;;;;;;14.13;11.52;;;11.10;99.90;;;;;;5012622;28;20049;-77
2023/05/23 00:16:02;;;;;;;16.17;11.80;;;11.00;99.90;;;;;;5014577;28;20133;-75
2023/05/23 00:18:29;;;;;;;15.27;11.95;;;11.10;99.90;;;;;;5013052;28;20396;-76
2023/05/23 00:20:58;;;;;;;15.95;11.93;;;11.00;99.90;;;;;;5013916;28;20104;-75
2023/05/23 00:23:28;;;;;;;16.20;12.23;;;11.00;99.90;;;;;;5008547;28;20052;-75
2023/05/23 00:25:57;;;;;;;12.80;11.35;;;11.00;99.90;;;;;;4979588;28;20426;-76
2023/05/23 00:28:26;;;;;;;14.23;12.30;;;11.00;99.90;;;;;;4996317;28;20089;-75
2023/05/23 00:30:54;;;;;;;17.40;11.98;;;10.90;99.90;;;;;;4997174;28;20464;-76
2023/05/23 00:33:22;;;;;;;15.10;12.75;;;10.90;99.90;;;;;;5002244;28;20068;-75
2023/05/23 00:35:49;;;;;;;19.60;13.77;;;10.90;99.90;;;;;;5013140;28;20141;-74
2023/05/23 00:38:17;;;;;;;17.80;13.80;;;10.90;99.90;;;;;;5014255;28;20507;-74
2023/05/23 00:40:44;;;;;;;15.23;12.15;;;10.90;99.90;;;;;;4997457;28;20067;-74
2023/05/23 00:43:12;;;;;;;13.85;11.52;;;10.90;99.90;;;;;;5013234;28;20184;-74
2023/05/23 00:45:41;;;;;;;13.18;11.65;;;10.90;99.90;;;;;;5012932;28;20050;-74
2023/05/23 00:48:10;;;;;;;18.40;12.18;;;10.90;99.90;;;;;;5014074;28;20061;-75
2023/05/23 00:50:38;;;;;;;16.48;12.73;;;10.90;99.90;;;;;;4995833;28;20056;-74
2023/05/23 00:53:06;;;;;;;16.38;13.25;;;10.80;99.90;;;;;;4994741;28;20395;-74
2023/05/23 00:55:33;;;;;;;18.10;12.35;;;10.80;99.90;;;;;;5013749;28;20049;-74
2023/05/23 00:58:01;;;;;;;15.35;12.35;;;10.90;99.90;;;;;;4980908;28;20050;-74
2023/05/23 01:00:29;;;;;;;13.45;11.60;;;10.90;99.90;;;;;;5011318;28;20546;-74
2023/05/23 01:02:57;;;;;;;17.15;12.43;;;10.90;99.90;;;;;;5012796;28;20124;-74
2023/05/23 01:05:25;;;;;;;13.73;11.75;;;10.90;99.90;;;;;;4979016;28;20037;-74
2023/05/23 01:07:55;;;;;;;13.65;11.63;;;11.00;99.90;;;;;;5017260;28;20046;-74
2023/05/23 01:10:27;;;;;;;14.48;11.68;;;11.00;99.90;;;;;;4999388;28;20477;-74
2023/05/23 01:13:10;;;;;;;15.40;12.52;;;11.00;99.90;;;;;;4977267;28;20066;-73
2023/05/23 01:15:42;;;;;;;13.45;11.02;;;10.90;99.90;;;;;;4995202;28;20074;-73
2023/05/23 01:18:18;;;;;;;17.90;12.80;;;10.90;99.90;;;;;;5016917;28;20060;-72
2023/05/23 01:20:53;;;;;;;13.25;11.80;;;10.90;99.90;;;;;;5012421;28;20052;-73
2023/05/23 01:23:51;;;;;;;11.80;10.60;;;10.90;99.90;;;;;;5013110;28;20144;-74
2023/05/23 01:26:33;;;;;;;16.27;11.93;;;10.80;99.90;;;;;;5018018;28;20136;-74
2023/05/23 01:29:09;;;;;;;11.25;10.07;;;10.80;99.90;;;;;;5012632;28;20053;-73
2023/05/23 01:31:42;;;;;;;12.13;10.93;;;10.80;99.90;;;;;;4995680;28;20581;-73
2023/05/23 01:34:12;;;;;;;12.80;10.73;;;10.80;99.90;;;;;;5011763;28;20054;-74
2023/05/23 01:36:42;;;;;;;11.85;10.55;;;10.80;99.90;;;;;;4994017;28;20057;-74
2023/05/23 01:39:11;;;;;;;13.85;10.63;;;10.80;99.90;;;;;;5012321;28;20065;-75
2023/05/23 01:41:39;;;;;;;12.40;10.05;;;10.80;99.90;;;;;;4994732;28;20411;-75
2023/05/23 01:44:08;;;;;;;11.90;10.65;;;10.80;99.90;;;;;;4997091;28;20132;-74
2023/05/23 01:46:38;;;;;;;12.82;9.93;;;10.90;99.90;;;;;;4997327;28;20424;-75
2023/05/23 01:49:08;;;;;;;13.48;11.85;;;10.90;99.90;;;;;;4977858;28;20050;-76
2023/05/23 01:51:36;;;;;;;11.93;10.65;;;10.90;99.90;;;;;;5012440;28;20061;-74
2023/05/23 01:54:04;;;;;;;19.25;12.25;;;10.90;99.90;;;;;;4998844;28;20454;-73
2023/05/23 01:56:33;;;;;;;17.58;11.85;;;10.90;99.90;;;;;;5011189;28;20058;-74
2023/05/23 01:59:02;;;;;;;13.18;11.40;;;11.00;99.90;;;;;;4994224;28;20053;-74
2023/05/23 02:01:31;;;;;;;12.27;11.05;;;11.00;99.90;;;;;;4978673;28;20594;-74
2023/05/23 02:03:59;;;;;;;12.95;11.52;;;11.00;99.90;;;;;;4995812;28;20096;-74
2023/05/23 02:06:26;;;;;;;14.27;11.27;;;11.10;99.90;;;;;;4994388;28;20046;-74
2023/05/23 02:08:54;;;;;;;20.35;12.65;;;11.10;99.90;;;;;;4978688;28;20053;-74
2023/05/23 02:11:22;;;;;;;15.18;12.05;;;11.10;99.90;;;;;;5012438;28;20057;-74
2023/05/23 02:13:50;;;;;;;15.55;12.05;;;11.10;99.90;;;;;;4982899;28;20086;-74
2023/05/23 02:16:18;;;;;;;15.65;12.73;;;11.10;99.90;;;;;;4992049;28;20053;-74
2023/05/23 02:18:47;;;;;;;13.38;10.90;;;11.10;99.90;;;;;;4989215;28;20066;-74
2023/05/23 02:21:15;;;;;;;12.60;11.35;;;11.10;99.90;;;;;;5003167;28;20591;-74
2023/05/23 02:23:42;;;;;;;12.38;10.43;;;11.20;99.90;;;;;;5011370;28;20053;-74
2023/05/23 02:26:10;;;;;;;15.75;11.05;;;11.10;99.90;;;;;;4994070;28;20056;-74
2023/05/23 02:28:37;;;;;;;13.70;11.45;;;11.10;99.90;;;;;;4977269;28;20537;-75
2023/05/23 02:31:05;;;;;;;13.50;12.07;;;11.10;99.90;;;;;;5010556;28;20056;-74
2023/05/23 02:33:32;;;;;;;16.90;12.93;;;11.10;99.90;;;;;;4993412;28;20048;-74
2023/05/23 02:36:02;;;;;;;15.20;12.38;;;11.10;99.90;;;;;;5011767;28;20564;-74
2023/05/23 02:38:30;;;;;;;15.27;12.95;;;11.20;99.90;;;;;;4995222;28;20050;-74
2023/05/23 02:40:58;;;;;;;15.00;12.32;;;11.20;99.90;;;;;;5014027;28;20052;-73
2023/05/23 02:43:26;;;;;;;14.68;12.80;;;11.20;99.90;;;;;;4995491;28;20061;-74
2023/05/23 02:45:53;;;;;;;17.38;13.43;;;11.20;99.90;;;;;;4993625;28;20081;-74
2023/05/23 02:48:21;;;;;;;16.25;13.75;;;11.20;99.90;;;;;;4977328;28;20050;-75
2023/05/23 02:50:48;;;;;;;19.30;13.13;;;11.20;99.90;;;;;;4993458;28;20132;-73
2023/05/23 02:53:17;;;;;;;19.30;15.05;;;11.20;99.90;;;;;;4990059;28;20564;-74
2023/05/23 02:55:45;;;;;;;18.40;15.27;;;11.20;99.90;;;;;;4975100;28;20050;-75
2023/05/23 02:58:12;;;;;;;18.98;15.23;;;11.30;99.90;;;;;;4999843;28;20109;-73
2023/05/23 03:00:42;;;;;;;19.73;16.13;;;11.30;99.90;;;;;;5009596;28;20100;-74
2023/05/23 03:03:10;;;;;;;17.33;14.77;;;11.30;99.90;;;;;;4992725;28;20521;-74
2023/05/23 03:05:38;;;;;;;16.92;15.05;;;11.30;99.90;;;;;;5012354;28;20184;-74
2023/05/23 03:08:05;;;;;;;23.60;15.48;;;11.40;99.90;;;;;;5011487;28;20049;-73
2023/05/23 03:10:34;;;;;;;20.08;16.17;;;11.40;99.90;;;;;;4995387;28;20065;-74
2023/05/23 03:13:02;;;;;;;19.90;15.38;;;11.50;99.90;;;;;;4976784;28;20068;-73
2023/05/23 03:15:29;;;;;;;20.70;16.23;;;11.60;99.90;;;;;;4996652;28;20065;-74
2023/05/23 03:17:57;;;;;;;21.75;17.55;;;11.60;99.90;;;;;;4992120;28;20510;-73
2023/05/23 03:20:25;;;;;;;27.08;19.45;;;11.60;99.90;;;;;;5011475;28;20045;-73
2023/05/23 03:22:52;;;;;;;25.08;17.90;;;11.60;99.90;;;;;;5012050;28;20137;-74
2023/05/23 03:25:19;;;;;;;22.00;17.63;;;11.70;99.90;;;;;;5020265;28;20526;-73
2023/05/23 03:27:49;;;;;;;26.15;17.88;;;11.70;99.90;;;;;;4999617;28;20050;-74
2023/05/23 03:30:20;;;;;;;27.92;19.35;;;11.80;99.90;;;;;;5016542;28;20641;-73
2023/05/23 03:32:48;;;;;;;22.38;17.25;;;11.80;99.90;;;;;;4998658;28;20518;-72
2023/05/23 03:35:16;;;;;;;22.98;18.02;;;11.80;99.90;;;;;;4982530;28;20046;-73
2023/05/23 03:37:43;;;;;;;25.77;19.45;;;11.90;99.90;;;;;;5014377;28;20046;-73
2023/05/23 03:40:11;;;;;;;25.92;18.15;;;12.00;99.90;;;;;;4982553;28;20461;-73
2023/05/23 03:42:42;;;;;;;27.33;18.52;;;12.00;99.90;;;;;;5020146;28;20061;-72
2023/05/23 03:45:12;;;;;;;25.08;18.42;;;12.00;99.90;;;;;;4999266;28;20048;-73
2023/05/23 03:47:41;;;;;;;25.73;18.98;;;12.10;99.90;;;;;;5000423;28;20104;-79
2023/05/23 03:50:10;;;;;;;26.20;19.48;;;12.10;99.90;;;;;;4999044;28;20068;-79
2023/05/23 03:52:38;;;;;;;29.52;19.67;;;12.10;99.90;;;;;;5008898;28;20131;-79
2023/05/23 03:55:08;;;;;;;28.30;19.45;;;12.20;99.90;;;;;;4978633;28;20050;-79
2023/05/23 03:57:36;;;;;;;30.23;19.50;;;12.20;99.90;;;;;;5000188;28;20054;-80
2023/05/23 04:00:05;;;;;;;25.13;18.25;;;12.30;99.90;;;;;;5000017;28;20045;-78
2023/05/23 04:02:46;;;;;;;25.10;18.02;;;12.30;99.90;;;;;;5015922;28;20076;-80
2023/05/23 04:05:16;;;;;;;24.20;18.53;;;12.30;99.90;;;;;;5018214;28;20466;-80
2023/05/23 04:07:45;;;;;;;29.45;19.65;;;12.40;99.90;;;;;;4980491;28;20300;-79
2023/05/23 04:10:12;;;;;;;26.08;19.23;;;12.40;99.90;;;;;;4984285;28;20049;-77
2023/05/23 04:12:41;;;;;;;25.50;18.95;;;12.50;99.90;;;;;;4982614;28;20034;-79
2023/05/23 04:15:14;;;;;;;29.38;20.17;;;12.50;99.90;;;;;;4999480;28;20037;-79
2023/05/23 04:17:53;;;;;;;24.27;19.65;;;12.60;99.90;;;;;;4999806;28;20057;-79
2023/05/23 04:20:22;;;;;;;31.10;20.35;;;12.70;99.90;;;;;;5015057;28;20415;-79
2023/05/23 04:22:49;;;;;;;34.28;23.52;;;12.70;99.90;;;;;;4999132;28;20057;-79
2023/05/23 04:25:19;;;;;;;32.22;22.75;;;12.80;99.90;;;;;;4983435;28;20096;-79
2023/05/23 04:27:56;;;;;;;32.47;23.77;;;12.90;99.90;;;;;;5000626;28;20081;-78
2023/05/23 04:30:24;;;;;;;34.33;23.40;;;13.00;99.90;;;;;;5016360;28;20053;-79
2023/05/23 04:32:53;;;;;;;30.58;21.90;;;13.10;99.90;;;;;;4999392;28;20504;-79
2023/05/23 04:35:21;;;;;;;32.63;21.35;;;13.10;99.90;;;;;;4996850;28;20108;-80
2023/05/23 04:37:49;;;;;;;32.00;21.80;;;13.20;99.90;;;;;;4995807;28;20146;-78
2023/05/23 04:40:17;;;;;;;30.02;21.30;;;13.30;99.90;;;;;;5014206;28;20052;-78
2023/05/23 04:43:09;;;;;;;25.20;20.45;;;13.30;99.90;;;;;;5012733;28;20457;-78
2023/05/23 04:45:49;;;;;;;24.52;19.75;;;13.40;99.90;;;;;;5013916;28;20111;-79
2023/05/23 04:48:37;;;;;;;26.25;19.20;;;13.50;99.90;;;;;;4977175;28;20095;-79
2023/05/23 04:51:08;;;;;;;23.60;18.90;;;13.50;99.90;;;;;;5000828;28;20079;-78
2023/05/23 04:53:42;;;;;;;28.83;18.15;;;13.70;99.90;;;;;;4997632;28;20050;-80
2023/05/23 04:56:21;;;;;;;23.35;19.38;;;13.80;99.90;;;;;;4985133;28;20510;-78
2023/05/23 04:58:49;;;;;;;28.63;19.20;;;13.90;99.90;;;;;;5003310;28;20147;-79
2023/05/23 05:01:16;;;;;;;25.77;19.50;;;13.90;99.90;;;;;;5003370;28;20039;-78
2023/05/23 05:03:46;;;;;;;26.33;18.33;;;14.00;99.90;;;;;;5011295;28;20469;-78
2023/05/23 05:06:15;;;;;;;23.98;17.88;;;14.10;99.90;;;;;;4993445;28;20050;-78
2023/05/23 05:08:42;;;;;;;24.95;18.48;;;14.30;99.90;;;;;;4986060;28;20454;-74
2023/05/23 05:11:11;;;;;;;24.20;17.15;;;14.30;99.90;;;;;;4971357;28;20061;-74
2023/05/23 05:13:39;;;;;;;20.05;16.75;;;14.40;99.90;;;;;;4978802;28;20421;-75
2023/05/23 05:16:09;;;;;;;26.08;15.80;;;14.60;99.90;;;;;;4984904;28;20053;-74
2023/05/23 05:18:36;;;;;;;22.27;16.45;;;14.80;99.90;;;;;;5004298;28;20051;-75
2023/05/23 05:21:06;;;;;;;19.55;13.73;;;14.90;99.90;;;;;;5007201;28;20050;-74
2023/05/23 05:23:36;;;;;;;22.77;13.20;;;15.10;99.90;;;;;;5007792;28;20153;-75
2023/05/23 05:26:07;;;;;;;19.75;14.10;;;15.20;99.90;;;;;;4990088;28;20050;-73
2023/05/23 05:28:35;;;;;;;16.05;11.80;;;15.40;99.90;;;;;;4993070;28;20049;-78
2023/05/23 05:31:03;;;;;;;13.98;11.48;;;15.70;99.90;;;;;;4998356;28;20073;-80
2023/05/23 05:33:36;;;;;;;15.60;11.60;;;16.10;99.90;;;;;;4989782;28;20137;-79
2023/05/23 05:36:14;;;;;;;11.55;10.35;;;16.60;99.90;;;;;;4983586;28;20069;-78
2023/05/23 05:38:42;;;;;;;17.35;10.05;;;17.20;99.90;;;;;;4994709;28;20081;-79
2023/05/23 05:41:09;;;;;;;12.18;9.40;;;17.60;99.90;;;;;;4966401;28;20049;-79
2023/05/23 05:43:41;;;;;;;13.00;8.93;;;17.90;99.90;;;;;;5007379;28;20107;-78
2023/05/23 05:46:11;;;;;;;13.57;9.43;;;18.30;99.90;;;;;;4990423;28;20058;-78
2023/05/23 05:48:38;;;;;;;13.38;9.32;;;18.60;99.90;;;;;;5005826;28;20659;-78
2023/05/23 05:51:08;;;;;;;10.77;9.02;;;18.90;99.90;;;;;;4973501;28;20060;-79
2023/05/23 05:53:37;;;;;;;13.15;9.27;;;19.40;99.90;;;;;;5004172;28;20050;-78
2023/05/23 05:56:07;;;;;;;10.20;9.27;;;19.70;99.90;;;;;;4984682;28;20490;-80
2023/05/23 05:58:35;;;;;;;13.82;8.63;;;20.10;99.90;;;;;;4980823;28;20050;-78
2023/05/23 06:01:07;;;;;;;11.25;8.23;;;20.50;99.90;;;;;;4986128;28;20046;-76
2023/05/23 06:03:35;;;;;;;12.30;9.15;;;21.00;99.90;;;;;;5004319;28;20473;-75
2023/05/23 06:06:02;;;;;;;10.40;8.93;;;21.30;99.90;;;;;;4986169;28;20096;-74
2023/05/23 06:08:30;;;;;;;13.02;8.88;;;21.50;99.90;;;;;;4985447;28;20042;-75
2023/05/23 06:10:59;;;;;;;11.82;8.05;;;21.90;99.90;;;;;;4981968;28;20128;-74
2023/05/23 06:13:27;;;;;;;11.43;9.00;;;22.30;99.90;;;;;;4999617;28;20426;-73
2023/05/23 06:15:55;;;;;;;12.30;8.05;;;22.20;99.90;;;;;;4988741;28;20042;-74
2023/05/23 06:18:25;;;;;;;9.63;8.05;;;22.40;99.90;;;;;;5008531;28;20061;-75
2023/05/23 06:20:56;;;;;;;10.32;8.68;;;22.70;99.90;;;;;;4991350;28;20049;-75
2023/05/23 06:23:24;;;;;;;11.32;8.40;;;22.90;99.90;;;;;;4995348;28;20054;-75
2023/05/23 06:25:51;;;;;;;7.88;7.13;;;23.00;99.90;;;;;;5002416;28;20050;-76
2023/05/23 06:28:20;;;;;;;7.90;7.20;;;23.20;99.90;;;;;;4990560;28;20499;-80
2023/05/23 06:30:53;;;;;;;8.25;7.28;;;23.10;99.90;;;;;;4994643;28;20042;-78
2023/05/23 06:33:23;;;;;;;10.35;7.03;;;23.10;99.90;;;;;;4975859;28;20046;-79
2023/05/23 06:35:50;;;;;;;7.13;6.50;;;23.30;99.90;;;;;;5013649;28;20149;-80
2023/05/23 06:38:18;;;;;;;8.52;7.10;;;23.40;99.90;;;;;;5022053;28;20209;-81
2023/05/23 06:40:45;;;;;;;9.43;7.47;;;23.20;99.90;;;;;;5005906;28;20423;-80
2023/05/23 06:43:15;;;;;;;10.68;8.60;;;23.30;99.90;;;;;;4970564;28;20136;-75
2023/05/23 06:45:50;;;;;;;10.75;8.65;;;23.60;99.90;;;;;;4982362;28;20042;-81
2023/05/23 06:48:18;;;;;;;10.60;8.60;;;23.80;99.90;;;;;;5004610;28;20045;-79
2023/05/23 06:50:46;;;;;;;9.57;8.48;;;24.40;99.90;;;;;;4982804;28;20092;-75
2023/05/23 06:53:17;;;;;;;8.75;7.68;;;24.70;99.90;;;;;;4995275;28;20048;-75
2023/05/23 06:55:46;;;;;;;10.63;7.60;;;25.20;99.90;;;;;;5010423;28;20046;-73
2023/05/23 06:58:16;;;;;;;9.30;8.40;;;25.60;98.20;;;;;;5007301;28;20301;-74
2023/05/23 07:00:44;;;;;;;10.77;7.53;;;25.90;98.70;;;;;;5012972;28;20057;-74
2023/05/23 07:03:20;;;;;;;6.85;6.25;;;26.20;96.40;;;;;;4993178;28;20127;-73
2023/05/23 07:05:50;;;;;;;10.65;5.55;;;25.90;93.20;;;;;;4987441;28;20057;-75
2023/05/23 07:08:19;;;;;;;6.15;5.63;;;25.80;93.90;;;;;;5002844;28;20124;-80
2023/05/23 07:10:58;;;;;;;6.50;5.43;;;26.10;92.40;;;;;;4975325;28;20046;-74
2023/05/23 07:13:35;;;;;;;7.85;5.65;;;26.40;90.20;;;;;;4987830;28;20037;-74
2023/05/23 07:16:03;;;;;;;8.50;5.35;;;26.70;90.50;;;;;;5003024;28;20140;-80
2023/05/23 07:18:33;;;;;;;7.43;5.68;;;26.90;87.90;;;;;;4978190;28;20096;-79
2023/05/23 07:21:01;;;;;;;7.07;5.82;;;27.10;85.00;;;;;;4993901;28;20107;-79
2023/05/23 07:23:33;;;;;;;11.68;5.68;;;27.10;81.70;;;;;;4978105;28;20041;-74
2023/05/23 07:26:01;;;;;;;9.35;6.32;;;26.70;81.40;;;;;;5008817;28;20057;-74
2023/05/23 07:28:30;;;;;;;6.97;5.53;;;26.30;83.60;;;;;;4975503;28;20128;-74
2023/05/23 07:30:59;;;;;;;10.18;4.90;;;26.20;84.80;;;;;;4994422;28;20054;-75
2023/05/23 07:33:27;;;;;;;7.40;4.32;;;25.90;81.50;;;;;;5005302;28;20484;-74
2023/05/23 07:36:01;;;;;;;6.20;4.82;;;25.80;82.50;;;;;;4999631;28;20064;-74
2023/05/23 07:38:29;;;;;;;4.88;4.15;;;26.20;83.10;;;;;;5008874;28;20140;-73
2023/05/23 07:40:57;;;;;;;7.45;5.00;;;26.90;77.20;;;;;;5004970;28;20047;-73
2023/05/23 07:43:25;;;;;;;8.90;5.50;;;27.00;78.70;;;;;;4990633;28;20057;-81
2023/05/23 07:45:57;;;;;;;5.75;5.20;;;27.30;79.60;;;;;;4992915;28;20049;-80
2023/05/23 07:48:25;;;;;;;6.90;4.75;;;27.10;79.00;;;;;;5009804;28;20058;-73
2023/05/23 07:50:54;;;;;;;6.45;4.95;;;27.50;77.80;;;;;;5004464;28;20053;-72
2023/05/23 07:53:24;;;;;;;6.25;4.20;;;27.70;75.20;;;;;;4990476;28;20418;-73
2023/05/23 07:55:53;;;;;;;5.55;5.07;;;27.90;75.30;;;;;;4968225;28;20046;-73
2023/05/23 07:58:22;;;;;;;4.72;4.32;;;27.30;73.50;;;;;;4984767;28;20526;-74
2023/05/23 08:00:50;;;;;;;7.13;4.03;;;26.00;76.50;;;;;;4984421;28;20389;-74
2023/05/23 08:03:38;;;;;;;6.50;4.88;;;24.70;77.70;;;;;;4991047;28;20100;-79
2023/05/23 08:06:11;;;;;;;3.83;3.42;;;23.90;82.30;;;;;;4973711;28;20053;-79
2023/05/23 08:08:42;;;;;;;5.82;4.90;;;24.10;81.60;;;;;;4992628;28;20045;-79
2023/05/23 08:11:10;;;;;;;5.57;4.00;;;24.30;84.10;;;;;;4991008;28;20049;-79
2023/05/23 08:13:43;;;;;;;6.45;4.00;;;25.60;83.90;;;;;;4979346;28;20536;-80
2023/05/23 08:16:30;;;;;;;3.83;3.53;;;26.90;77.40;;;;;;4995989;28;20421;-79
2023/05/23 08:18:57;;;;;;;3.95;3.65;;;27.90;72.70;;;;;;4994361;28;20156;-78
2023/05/23 08:21:24;;;;;;;6.35;3.35;;;28.80;69.30;;;;;;4975133;28;20045;-79
2023/05/23 08:23:54;;;;;;;5.80;3.75;;;29.30;67.10;;;;;;5000897;28;20164;-78
2023/05/23 08:26:22;;;;;;;7.22;4.40;;;29.60;65.60;;;;;;4995907;28;20045;-79
2023/05/23 08:28:51;;;;;;;7.20;3.45;;;29.90;66.70;;;;;;4977114;28;20462;-79
2023/05/23 08:31:20;;;;;;;5.13;3.70;;;29.40;62.90;;;;;;4994988;28;20056;-76
2023/05/23 08:33:48;;;;;;;4.07;3.67;;;28.80;65.70;;;;;;4982012;28;20158;-76
2023/05/23 08:36:15;;;;;;;4.82;3.58;;;29.00;66.50;;;;;;4990678;28;20137;-76
2023/05/23 08:38:45;;;;;;;5.03;3.95;;;29.50;64.80;;;;;;4974337;28;20430;-73
2023/05/23 08:41:23;;;;;;;3.30;2.97;;;30.10;63.30;;;;;;5005036;28;20077;-75
2023/05/23 08:43:56;;;;;;;6.35;3.08;;;30.70;58.40;;;;;;4985806;28;20050;-76
2023/05/23 08:46:29;;;;;;;3.63;3.33;;;30.90;57.00;;;;;;5010619;28;20053;-72
2023/05/23 08:49:00;;;;;;;5.13;3.08;;;30.70;57.20;;;;;;5009299;28;20053;-72
2023/05/23 08:51:30;;;;;;;3.50;3.30;;;30.80;56.70;;;;;;4992523;28;20057;-72
2023/05/23 08:54:08;;;;;;;3.97;3.20;;;31.00;57.60;;;;;;4995638;28;20508;-73
2023/05/23 08:56:44;;;;;;;3.95;3.60;;;31.20;56.10;;;;;;4993774;28;20050;-78
2023/05/23 08:59:12;;;;;;;;;;;31.00;55.60;;;;;;4995088;28;20208;-78
2023/05/23 09:01:43;;;;;;;3.28;2.97;;;30.90;55.80;;;;;;4988784;28;19933;-77
2023/05/23 09:04:13;;;;;;;3.15;2.75;;;29.90;55.10;;;;;;4985550;28;20082;-79
2023/05/23 09:06:57;;;;;;;7.60;2.95;;;29.70;57.00;;;;;;4984091;28;20042;-73
2023/05/23 09:09:26;;;;;;;3.35;3.00;;;30.40;56.80;;;;;;4990823;28;20043;-73
2023/05/23 09:11:56;;;;;;;5.38;3.22;;;31.40;54.80;;;;;;4993142;28;20076;-73
2023/05/23 09:14:25;;;;;;;3.65;3.22;;;32.00;53.90;;;;;;4995364;28;20533;-76
2023/05/23 09:17:01;;;;;;;3.08;2.80;;;32.10;52.40;;;;;;4989065;28;20057;-72
2023/05/23 09:19:31;;;;;;;4.82;2.90;;;31.30;54.50;;;;;;4993219;28;20503;-74
2023/05/23 09:22:06;;;;;;;10.07;3.38;;;31.30;55.00;;;;;;4964583;28;20053;-79
2023/05/23 09:24:41;;;;;;;3.35;2.95;;;31.90;55.10;;;;;;4997449;28;20105;-79
2023/05/23 09:27:12;;;;;;;5.50;3.35;;;32.80;51.30;;;;;;4993919;28;20144;-78
2023/05/23 09:29:40;;;;;;;8.75;4.13;;;32.70;50.60;;;;;;4974045;28;20181;-78
2023/05/23 09:32:15;;;;;;;7.35;4.95;;;32.80;50.60;;;;;;4993220;28;20397;-78
2023/05/23 09:34:55;;;;;;;3.78;3.38;;;33.30;48.70;;;;;;4989597;28;20097;-79
2023/05/23 09:37:31;;;;;;;7.13;3.50;;;33.70;48.70;;;;;;4988187;28;20045;-77
2023/05/23 09:40:01;;;;;;;4.50;3.92;;;33.10;48.70;;;;;;5009910;28;20128;-73
2023/05/23 09:42:36;;;;;;;4.35;3.28;;;32.70;49.30;;;;;;5007621;28;20050;-73
2023/05/23 09:45:06;;;;;;;7.45;4.65;;;32.90;49.80;;;;;;4996672;28;20053;-72
2023/05/23 09:47:33;;;;;;;6.05;3.53;;;33.30;48.10;;;;;;5008898;28;20100;-73
2023/05/23 09:50:01;;;;;;;5.03;3.88;;;33.90;48.80;;;;;;5007883;28;20148;-72
2023/05/23 09:52:37;;;;;;;5.88;3.80;;;33.70;47.70;;;;;;5009461;28;20140;-73
2023/05/23 09:55:09;;;;;;;4.30;3.90;;;31.90;48.70;;;;;;4985174;28;20054;-74
2023/05/23 09:57:41;;;;;;;;;;;29.90;51.50;;;;;;4994872;28;20057;-77
2023/05/23 10:00:11;;;;;;;4.20;3.90;;;29.70;53.80;;;;;;5005081;28;20025;-77
2023/05/23 10:02:58;;;;;;;6.25;3.70;;;30.60;53.10;;;;;;5011941;28;20111;-71
2023/05/23 10:05:36;;;;;;;8.88;3.65;;;31.80;52.00;;;;;;5001146;28;20517;-72
2023/05/23 10:08:09;;;;;;;3.85;3.55;;;33.00;50.30;;;;;;5008816;28;20110;-79
2023/05/23 10:11:39;;;;;;;6.43;3.55;;;33.70;49.30;;;;;;5013894;28;20038;-73
2023/05/23 10:14:10;;;;;;;6.43;3.67;;;33.60;48.10;;;;;;5020568;28;20356;-72
2023/05/23 10:16:51;;;;;;;3.88;3.53;;;33.50;48.30;;;;;;4991973;28;20084;-72
2023/05/23 10:19:25;;;;;;;3.30;3.00;;;33.60;47.20;;;;;;4987657;28;20069;-72
2023/05/23 10:21:59;;;;;;;6.82;3.70;;;33.40;47.90;;;;;;5008236;28;20049;-72
2023/05/23 10:24:29;;;;;;;3.95;3.25;;;33.80;46.90;;;;;;4991889;28;20085;-73
2023/05/23 10:26:58;;;;;;;3.53;3.22;;;33.80;47.00;;;;;;4992695;28;20434;-72
2023/05/23 10:29:27;;;;;;;3.08;2.88;;;34.00;48.00;;;;;;4992816;28;20050;-72
2023/05/23 10:31:56;;;;;;;5.43;3.47;;;34.60;48.00;;;;;;5004599;28;20066;-79
2023/05/23 10:34:37;;;;;;;4.70;3.28;;;35.00;47.10;;;;;;4980358;28;20458;-80
2023/05/23 10:37:06;;;;;;;3.67;3.38;;;34.00;47.20;;;;;;4996410;28;20062;-78
2023/05/23 10:39:54;;;;;;;6.22;3.83;;;32.00;48.60;;;;;;4990143;28;20046;-74
2023/05/23 10:42:35;;;;;;;7.47;3.92;;;30.30;50.00;;;;;;5001967;28;20073;-78
2023/05/23 10:45:17;;;;;;;5.38;4.80;;;29.60;52.50;;;;;;5002266;28;20934;-79
2023/05/23 10:47:51;;;;;;;4.28;3.10;;;30.80;53.40;;;;;;4987228;28;20046;-79
2023/05/23 10:50:32;;;;;;;4.68;3.42;;;32.40;49.20;;;;;;4983437;28;20074;-80
2023/05/23 10:53:04;;;;;;;3.30;3.00;;;33.70;47.00;;;;;;5005140;28;20056;-79
2023/05/23 10:55:33;;;;;;;6.28;3.40;;;34.10;46.00;;;;;;5001811;28;20046;-79
2023/05/23 10:58:14;;;;;;;3.38;3.08;;;33.90;46.30;;;;;;5001349;28;20056;-79
2023/05/23 11:00:53;;;;;;;7.05;3.10;;;33.40;47.10;;;;;;5009831;28;20050;-79
2023/05/23 11:03:36;;;;;;;3.70;3.42;;;32.20;49.30;;;;;;4995145;28;20060;-74
2023/05/23 11:06:06;;;;;;;5.78;3.60;;;30.90;49.60;;;;;;4988358;28;20418;-74
2023/05/23 11:08:44;;;;;;;3.95;3.00;;;31.30;50.10;;;;;;5009869;28;20466;-73
2023/05/23 11:11:12;;;;;;;3.45;3.00;;;32.50;48.80;;;;;;5005408;28;20045;-72
2023/05/23 11:14:04;;;;;;;6.68;3.45;;;33.50;47.40;;;;;;5002263;28;20030;-74
2023/05/23 11:16:41;;;;;;;6.00;3.40;;;34.60;47.10;;;;;;4995324;28;20164;-73
2023/05/23 11:19:26;;;;;;;3.50;3.25;;;35.20;45.80;;;;;;5002127;28;20584;-73
2023/05/23 11:21:58;;;;;;;3.85;3.35;;;34.70;44.30;;;;;;4990577;28;20145;-73
2023/05/23 11:24:52;;;;;;;6.22;2.97;;;34.80;44.90;;;;;;5004423;28;20058;-73
2023/05/23 11:27:27;;;;;;;5.07;3.22;;;35.50;43.30;;;;;;4999129;28;20046;-75
2023/05/23 11:30:05;;;;;;;6.50;3.65;;;34.30;44.20;;;;;;5008990;28;20133;-75
2023/05/23 11:32:37;;;;;;;4.38;3.83;;;32.20;46.90;;;;;;4988300;28;20109;-75
2023/05/23 11:35:06;;;;;;;3.95;3.22;;;30.60;48.40;;;;;;4996834;28;20038;-77
2023/05/23 11:37:34;;;;;;;3.85;3.10;;;30.60;50.50;;;;;;5008413;28;20046;-74
2023/05/23 11:40:28;;;;;;;3.85;3.33;;;32.20;48.30;;;;;;5008871;28;20534;-74
2023/05/23 11:42:57;;;;;;;3.55;3.25;;;34.00;45.60;;;;;;4978020;28;20049;-72
2023/05/23 11:45:26;;;;;;;4.30;2.85;;;34.70;44.50;;;;;;4982920;28;20488;-72
2023/05/23 11:47:55;;;;;;;3.30;2.83;;;35.50;43.90;;;;;;5015344;28;20131;-80
2023/05/23 11:50:23;;;;;;;4.35;3.03;;;36.20;42.50;;;;;;5015186;28;20049;-81
2023/05/23 11:52:52;;;;;;;3.53;3.22;;;36.70;42.40;;;;;;4995489;28;20136;-72
2023/05/23 11:55:21;;;;;;;5.13;3.10;;;36.70;41.20;;;;;;5005458;28;20152;-72
2023/05/23 11:57:50;;;;;;;4.97;3.22;;;36.80;41.90;;;;;;5003324;28;20046;-71
2023/05/23 12:00:19;;;;;;;7.60;4.50;;;37.30;41.60;;;;;;5001617;28;20038;-71
2023/05/23 12:02:48;;;;;;;4.07;3.80;;;37.80;40.50;;;;;;5002104;28;20095;-71
2023/05/23 12:05:18;;;;;;;5.35;2.80;;;38.40;40.10;;;;;;4987332;28;20041;-73
2023/05/23 12:07:48;;;;;;;4.45;2.78;;;38.60;38.90;;;;;;5004515;28;20046;-73
2023/05/23 12:10:20;;;;;;;4.25;3.85;;;38.70;38.60;;;;;;4984258;28;20046;-78
2023/05/23 12:12:48;;;;;;;3.85;3.50;;;39.00;40.50;;;;;;5211094;23;20157;-77
2023/05/23 12:15:16;;;;;;;5.03;2.78;;;38.80;38.20;;;;;;5036369;28;20033;-76
2023/05/23 12:17:45;;;;;;;3.22;2.70;;;38.30;38.90;;;;;;5050120;28;20135;-74
2023/05/23 12:20:17;;;;;;;5.05;3.33;;;38.30;39.70;;;;;;5043353;28;20041;-79
2023/05/23 12:22:46;;;;;;;4.22;2.70;;;38.60;40.90;;;;;;5011029;28;20045;-78
2023/05/23 12:25:13;;;;;;;3.55;3.25;;;38.60;39.10;;;;;;5048413;28;20045;-77
2023/05/23 12:27:42;;;;;;;8.52;3.10;;;38.20;38.00;;;;;;5022418;28;20590;-78
2023/05/23 12:30:14;;;;;;;3.13;2.83;;;38.00;39.30;;;;;;5047227;28;20059;-75
2023/05/23 12:32:44;;;;;;;3.25;3.05;;;38.10;38.90;;;;;;5045649;28;20419;-78
2023/05/23 12:35:17;;;;;;;2.92;2.72;;;38.30;38.50;;;;;;5046880;28;20044;-76
2023/05/23 12:37:47;;;;;;;5.25;3.40;;;38.20;37.50;;;;;;5010676;28;20045;-76
2023/05/23 12:40:16;;;;;;;6.18;2.90;;;38.10;41.40;;;;;;5045862;28;20128;-75
2023/05/23 12:42:52;;;;;;;3.35;3.10;;;38.10;38.60;;;;;;5051316;28;20048;-75
2023/05/23 12:45:21;;;;;;;2.88;2.65;;;38.50;37.90;;;;;;5042980;28;20057;-77
2023/05/23 12:47:49;;;;;;;3.17;2.97;;;38.60;37.50;;;;;;5032377;28;20586;-78
2023/05/23 12:50:17;;;;;;;3.60;3.28;;;38.80;37.50;;;;;;5041464;28;20587;-75
2023/05/23 12:52:46;;;;;;;4.05;2.88;;;39.10;38.20;;;;;;5033439;28;20049;-79
2023/05/23 12:55:13;;;;;;;3.53;3.22;;;39.30;38.10;;;;;;5049519;28;20509;-79
2023/05/23 12:57:41;;;;;;;2.70;2.55;;;39.30;37.30;;;;;;5038295;28;20127;-82